Terminal Aerodrome Forecast
Issued by NWS

Home | Current Version | Previous Version | Text Only | Print | Product List | Glossary On
Versions: 1 2 3 4 5 6 7 8 9 10 11 12 13 14 15 16
011
FTUS43 KLSX 231531 AAC
TAFSUS
TAF AMD
KSUS 231531Z 2316/2412 02012KT 5SM -SHRA BKN008 OVC015
     FM231700 04010KT 5SM BR OVC015
     FM232000 05012KT P6SM OVC020
     FM240300 02006KT P6SM OVC015=

USA.gov is the U.S. government's official web portal to all federal, state and local government web resources and services.